createdAt,value
2018-11-25T00:01:14.430Z,14.73
2018-11-25T00:04:17.904Z,15.60
2018-11-25T00:07:21.514Z,14.83
2018-11-25T00:10:25.090Z,13.20
2018-11-25T00:13:28.706Z,12.57
2018-11-25T00:16:32.339Z,13.67
2018-11-25T00:19:35.884Z,13.43
2018-11-25T00:22:39.482Z,13.87
2018-11-25T00:25:42.985Z,14.90
2018-11-25T00:28:46.555Z,12.43
2018-11-25T00:31:50.016Z,12.50
2018-11-25T00:34:53.599Z,11.90
2018-11-25T00:37:57.228Z,12.23
2018-11-25T00:41:00.872Z,15.17
2018-11-25T00:44:04.460Z,15.03
2018-11-25T00:47:08.025Z,13.47
2018-11-25T00:50:13.252Z,13.53
2018-11-25T00:53:17.095Z,13.87
2018-11-25T00:56:20.697Z,12.77
2018-11-25T00:59:24.262Z,13.33
2018-11-25T01:02:27.797Z,12.70
2018-11-25T01:05:31.397Z,13.07
2018-11-25T01:08:35.322Z,12.70
2018-11-25T01:11:38.959Z,11.93
2018-11-25T01:14:42.507Z,12.20
2018-11-25T01:17:46.268Z,10.93
2018-11-25T01:20:49.946Z,10.77
2018-11-25T01:23:53.682Z,12.10
2018-11-25T01:26:57.437Z,10.53
2018-11-25T01:30:00.910Z,10.53
2018-11-25T01:33:04.428Z,10.60
2018-11-25T01:36:07.934Z,12.97
2018-11-25T01:39:11.502Z,16.23
2018-11-25T01:42:15.105Z,10.97
2018-11-25T01:45:18.819Z,9.87
2018-11-25T01:48:22.296Z,11.47
2018-11-25T01:51:25.754Z,10.23
2018-11-25T01:54:29.386Z,9.87
2018-11-25T01:57:32.979Z,10.40
2018-11-25T02:00:36.638Z,8.53
2018-11-25T02:03:40.157Z,9.93
2018-11-25T02:06:43.636Z,8.50
2018-11-25T02:09:47.199Z,8.07
2018-11-25T02:12:50.774Z,9.07
2018-11-25T02:15:54.309Z,11.97
2018-11-25T02:18:57.900Z,9.60
2018-11-25T02:22:01.381Z,9.53
2018-11-25T02:25:05.746Z,10.03
2018-11-25T02:28:09.322Z,7.57
2018-11-25T02:31:12.839Z,11.07
2018-11-25T02:34:16.344Z,12.20
2018-11-25T02:37:19.799Z,11.33
2018-11-25T02:40:23.362Z,9.07
2018-11-25T02:43:26.919Z,10.43
2018-11-25T02:46:30.464Z,10.23
2018-11-25T02:49:33.970Z,12.33
2018-11-25T02:52:37.570Z,10.63
2018-11-25T02:55:41.134Z,9.43
2018-11-25T02:58:45.700Z,9.27
2018-11-25T03:01:49.167Z,8.70
2018-11-25T03:04:52.801Z,9.30
2018-11-25T03:07:56.183Z,9.77
2018-11-25T03:10:59.671Z,8.20
2018-11-25T03:14:03.239Z,8.80
2018-11-25T03:17:06.799Z,9.33
2018-11-25T03:20:14.637Z,8.37
2018-11-25T03:23:18.277Z,8.80
2018-11-25T03:26:21.820Z,8.73
2018-11-25T03:29:25.313Z,7.43
2018-11-25T03:32:28.900Z,7.90
2018-11-25T03:35:32.708Z,10.57
2018-11-25T03:38:36.207Z,8.50
2018-11-25T03:41:39.649Z,7.87
2018-11-25T03:44:43.138Z,9.23
2018-11-25T03:47:46.554Z,8.53
2018-11-25T03:50:49.985Z,8.67
2018-11-25T03:53:53.587Z,8.63
2018-11-25T03:56:57.049Z,9.67
2018-11-25T04:00:00.524Z,8.90
2018-11-25T04:03:04.037Z,8.53
2018-11-25T04:06:07.544Z,8.97
2018-11-25T04:09:10.939Z,10.43
2018-11-25T04:12:14.352Z,10.10
2018-11-25T04:15:18.874Z,11.83
2018-11-25T04:18:22.362Z,12.97
2018-11-25T04:21:25.892Z,10.00
2018-11-25T04:24:29.370Z,12.00
2018-11-25T04:27:33.220Z,10.23
2018-11-25T04:30:36.586Z,10.50
2018-11-25T04:33:40.042Z,11.47
2018-11-25T04:36:43.646Z,11.83
2018-11-25T04:39:47.334Z,11.23
2018-11-25T04:42:50.835Z,13.03
2018-11-25T04:45:54.362Z,10.93
2018-11-25T04:48:58.171Z,13.07
2018-11-25T04:52:01.647Z,12.50
2018-11-25T04:55:06.399Z,13.37
2018-11-25T04:58:10.201Z,13.10
2018-11-25T05:01:13.836Z,10.80
2018-11-25T05:04:17.519Z,11.97
2018-11-25T05:07:21.125Z,11.57
2018-11-25T05:10:24.626Z,12.73
2018-11-25T05:13:28.191Z,15.13
2018-11-25T05:16:31.757Z,13.63
2018-11-25T05:19:35.347Z,12.53
2018-11-25T05:22:38.944Z,13.20
2018-11-25T05:25:42.634Z,14.27
2018-11-25T05:29:04.091Z,13.00
2018-11-25T05:32:07.844Z,14.30
2018-11-25T05:35:23.068Z,13.63
2018-11-25T05:38:27.137Z,13.80
2018-11-25T05:41:31.005Z,13.20
2018-11-25T05:44:34.754Z,13.97
2018-11-25T05:47:39.026Z,14.03
2018-11-25T05:50:42.564Z,13.63
2018-11-25T05:53:46.463Z,13.80
2018-11-25T05:56:50.135Z,12.17
2018-11-25T05:59:53.599Z,14.33
2018-11-25T06:02:57.259Z,13.07
2018-11-25T06:06:00.793Z,14.27
2018-11-25T06:09:06.102Z,14.10
2018-11-25T06:12:09.641Z,12.40
2018-11-25T06:15:15.411Z,13.80
2018-11-25T06:18:19.156Z,14.53
2018-11-25T06:21:22.621Z,16.00
2018-11-25T06:24:26.398Z,15.53
2018-11-25T06:27:30.533Z,15.37
2018-11-25T06:30:33.573Z,14.60
2018-11-25T06:33:37.351Z,14.57
2018-11-25T06:36:40.980Z,13.80
2018-11-25T06:39:44.570Z,15.23
2018-11-25T06:42:48.265Z,14.50
2018-11-25T06:45:51.821Z,13.93
2018-11-25T06:48:55.414Z,14.13
2018-11-25T06:51:58.944Z,14.47
2018-11-25T06:55:02.528Z,15.00
2018-11-25T06:58:06.218Z,15.13
2018-11-25T07:01:10.168Z,16.47
2018-11-25T07:04:13.716Z,17.97
2018-11-25T07:07:17.269Z,17.93
2018-11-25T07:10:21.892Z,17.37
2018-11-25T07:13:25.299Z,15.80
2018-11-25T07:16:28.838Z,16.87
2018-11-25T07:19:33.433Z,17.20
2018-11-25T07:22:37.067Z,18.30
2018-11-25T07:25:42.596Z,16.47
2018-11-25T07:28:46.261Z,15.70
2018-11-25T07:31:49.817Z,15.53
2018-11-25T07:34:53.482Z,18.03
2018-11-25T07:37:57.319Z,16.53
2018-11-25T07:41:01.022Z,15.83
2018-11-25T07:44:04.813Z,17.17
2018-11-25T07:47:08.268Z,15.50
2018-11-25T07:50:13.704Z,16.30
2018-11-25T07:53:17.347Z,16.33
2018-11-25T07:56:20.912Z,15.43
2018-11-25T07:59:24.472Z,16.17
2018-11-25T08:02:27.985Z,17.00
2018-11-25T08:05:31.672Z,14.80
2018-11-25T08:08:35.169Z,15.33
2018-11-25T08:11:38.757Z,17.00
2018-11-25T08:14:42.310Z,16.37
2018-11-25T08:17:45.842Z,15.83
2018-11-25T08:20:49.350Z,16.33
2018-11-25T08:23:52.993Z,16.80
2018-11-25T08:26:56.558Z,17.57
2018-11-25T08:30:00.315Z,16.93
2018-11-25T08:33:03.861Z,16.43
2018-11-25T08:36:07.421Z,15.23
2018-11-25T08:39:11.070Z,15.27
2018-11-25T08:42:14.472Z,15.57
2018-11-25T08:45:17.975Z,14.90
2018-11-25T08:48:21.580Z,15.40
2018-11-25T08:51:25.220Z,16.27
2018-11-25T08:54:29.030Z,15.97
2018-11-25T08:57:32.643Z,16.20
2018-11-25T09:00:36.353Z,15.73
2018-11-25T09:03:39.974Z,13.90
2018-11-25T09:06:43.644Z,15.77
2018-11-25T09:09:47.217Z,15.50
2018-11-25T09:12:55.859Z,14.80
2018-11-25T09:15:55.427Z,17.23
2018-11-25T09:18:59.026Z,16.40
2018-11-25T09:22:02.554Z,15.83
2018-11-25T09:25:08.282Z,16.30
2018-11-25T09:28:11.855Z,15.40
2018-11-25T09:31:15.562Z,15.30
2018-11-25T09:34:19.270Z,13.93
2018-11-25T09:37:22.811Z,15.97
2018-11-25T09:40:27.242Z,19.00
2018-11-25T09:43:31.670Z,14.83
2018-11-25T09:46:42.443Z,15.30
2018-11-25T09:49:38.895Z,16.10
2018-11-25T09:52:42.579Z,15.93
2018-11-25T09:55:46.211Z,14.93
2018-11-25T09:58:49.596Z,14.03
2018-11-25T10:01:54.338Z,14.00
2018-11-25T10:04:57.789Z,15.30
2018-11-25T10:08:01.211Z,13.97
2018-11-25T10:11:04.908Z,13.60
2018-11-25T10:14:08.510Z,11.97
2018-11-25T10:17:12.150Z,15.00
2018-11-25T10:20:19.817Z,13.77
2018-11-25T10:23:23.338Z,13.50
2018-11-25T10:26:26.768Z,14.00
2018-11-25T10:29:30.342Z,13.17
2018-11-25T10:32:33.883Z,16.37
2018-11-25T10:35:37.799Z,13.57
2018-11-25T10:38:41.357Z,15.43
2018-11-25T10:41:45.147Z,16.40
2018-11-25T10:44:48.676Z,12.23
2018-11-25T10:47:52.089Z,12.40
2018-11-25T10:50:55.650Z,11.63
2018-11-25T10:53:59.291Z,12.40
2018-11-25T10:57:03.875Z,11.33
2018-11-25T11:00:17.324Z,11.27
2018-11-25T11:03:26.353Z,12.80
2018-11-25T11:06:36.446Z,13.17
2018-11-25T11:09:48.281Z,12.33
2018-11-25T11:12:51.798Z,13.07
2018-11-25T11:15:55.308Z,11.63
2018-11-25T11:18:58.835Z,12.43
2018-11-25T11:22:02.531Z,11.13
2018-11-25T11:25:07.629Z,10.67
2018-11-25T11:28:13.850Z,12.33
2018-11-25T11:31:20.010Z,11.50
2018-11-25T11:34:24.564Z,11.30
2018-11-25T11:37:28.450Z,10.53
2018-11-25T11:40:31.966Z,10.67
2018-11-25T11:43:35.586Z,10.07
2018-11-25T11:46:39.110Z,11.53
2018-11-25T11:49:43.526Z,10.90
2018-11-25T11:52:47.036Z,10.00
2018-11-25T11:55:50.539Z,9.83
2018-11-25T11:58:54.164Z,9.63
2018-11-25T12:01:57.698Z,8.80
2018-11-25T12:05:01.149Z,8.70
2018-11-25T12:08:04.853Z,11.10
2018-11-25T12:11:08.512Z,10.43
2018-11-25T12:14:12.700Z,10.73
2018-11-25T12:17:16.224Z,9.27
2018-11-25T12:20:21.459Z,12.13
2018-11-25T12:23:23.846Z,8.93
2018-11-25T12:26:27.638Z,8.90
2018-11-25T12:29:31.565Z,9.93
2018-11-25T12:32:34.973Z,10.07
2018-11-25T12:35:38.611Z,10.03
2018-11-25T12:38:42.104Z,11.43
2018-11-25T12:41:45.599Z,7.87
2018-11-25T12:44:49.367Z,7.93
2018-11-25T12:47:52.942Z,8.00
2018-11-25T12:50:56.440Z,7.53
2018-11-25T12:54:00.023Z,6.73
2018-11-25T12:57:03.685Z,7.20
2018-11-25T13:00:26.507Z,6.40
2018-11-25T13:03:30.216Z,5.30
2018-11-25T13:06:33.804Z,5.50
2018-11-25T13:09:37.405Z,6.20
2018-11-25T13:12:40.822Z,8.67
2018-11-25T13:15:44.318Z,10.13
2018-11-25T13:18:47.936Z,12.37
2018-11-25T13:21:51.509Z,11.63
2018-11-25T13:24:55.050Z,12.33
2018-11-25T13:27:58.702Z,11.87
2018-11-25T13:31:02.210Z,12.57
2018-11-25T13:34:05.855Z,12.23
2018-11-25T13:37:09.573Z,13.83
2018-11-25T13:40:14.547Z,11.53
2018-11-25T13:43:18.063Z,12.90
2018-11-25T13:46:21.594Z,13.20
2018-11-25T13:49:25.173Z,14.13
2018-11-25T13:52:28.777Z,11.77
2018-11-25T13:55:32.426Z,12.70
2018-11-25T13:58:36.086Z,13.27
2018-11-25T14:01:39.612Z,13.60
2018-11-25T14:04:43.013Z,13.20
2018-11-25T14:07:47.572Z,13.40
2018-11-25T14:10:58.043Z,13.07
2018-11-25T14:14:01.677Z,15.60
2018-11-25T14:17:05.400Z,13.87
2018-11-25T14:20:09.902Z,15.40
2018-11-25T14:23:14.469Z,13.13
2018-11-25T14:26:23.577Z,13.03
2018-11-25T14:29:27.534Z,14.53
2018-11-25T14:32:31.100Z,16.00
2018-11-25T14:35:34.514Z,14.60
2018-11-25T14:38:38.056Z,16.07
2018-11-25T14:41:41.759Z,16.83
2018-11-25T14:44:45.330Z,15.30
2018-11-25T14:47:48.866Z,15.13
2018-11-25T14:50:52.510Z,15.60
2018-11-25T14:53:56.180Z,15.83
2018-11-25T14:56:59.717Z,16.23
2018-11-25T15:00:04.141Z,15.30
2018-11-25T15:03:08.027Z,20.03
2018-11-25T15:06:11.592Z,15.87
2018-11-25T15:09:15.096Z,18.90
2018-11-25T15:12:18.648Z,19.00
2018-11-25T15:15:22.214Z,19.53
2018-11-25T15:18:26.785Z,16.40
2018-11-25T15:21:30.345Z,20.23
2018-11-25T15:24:33.813Z,20.57
2018-11-25T15:27:37.348Z,18.73
2018-11-25T15:30:41.817Z,19.47
2018-11-25T15:33:45.278Z,17.00
2018-11-25T15:36:48.720Z,20.57
2018-11-25T15:39:52.226Z,16.70
2018-11-25T15:42:55.751Z,17.30
2018-11-25T15:45:59.635Z,16.43
2018-11-25T15:49:03.185Z,13.93
2018-11-25T15:52:06.766Z,15.73
2018-11-25T15:55:12.154Z,14.63
2018-11-25T15:58:15.640Z,15.37
2018-11-25T16:01:19.269Z,16.53
2018-11-25T16:04:22.760Z,19.23
2018-11-25T16:07:26.202Z,18.73
2018-11-25T16:10:29.670Z,16.30
2018-11-25T16:13:33.198Z,15.90
2018-11-25T16:16:36.647Z,16.30
2018-11-25T16:19:40.079Z,16.73
2018-11-25T16:22:43.995Z,16.93
2018-11-25T16:25:49.527Z,17.57
2018-11-25T16:28:55.170Z,16.47
2018-11-25T16:31:58.810Z,15.97
2018-11-25T16:35:02.428Z,19.00
2018-11-25T16:38:06.935Z,16.33
2018-11-25T16:41:10.539Z,18.53
2018-11-25T16:44:14.143Z,21.90
2018-11-25T16:47:17.674Z,20.23
2018-11-25T16:50:25.360Z,17.97
2018-11-25T16:53:25.875Z,18.07
2018-11-25T16:56:29.477Z,17.40
2018-11-25T16:59:33.119Z,17.67
2018-11-25T17:02:36.831Z,21.30
2018-11-25T17:05:42.377Z,19.30
2018-11-25T17:08:46.429Z,20.07
2018-11-25T17:11:50.093Z,21.43
2018-11-25T17:14:53.761Z,18.20
2018-11-25T17:17:57.411Z,19.17
2018-11-25T17:21:00.933Z,18.50
2018-11-25T17:24:04.620Z,24.73
2018-11-25T17:27:08.178Z,20.60
2018-11-25T17:30:26.421Z,21.57
2018-11-25T17:33:30.044Z,22.60
2018-11-25T17:36:33.575Z,19.87
2018-11-25T17:39:37.108Z,20.83
2018-11-25T17:42:40.839Z,19.60
2018-11-25T17:45:44.470Z,20.07
2018-11-25T17:48:48.992Z,22.20
2018-11-25T17:51:52.551Z,18.43
2018-11-25T17:54:56.342Z,20.07
2018-11-25T17:57:59.990Z,18.67
2018-11-25T18:01:06.312Z,18.20
2018-11-25T18:04:09.885Z,18.73
2018-11-25T18:07:13.447Z,20.33
2018-11-25T18:10:17.025Z,18.63
2018-11-25T18:13:22.052Z,18.60
2018-11-25T18:16:25.566Z,17.03
2018-11-25T18:19:29.197Z,20.13
2018-11-25T18:22:32.786Z,16.80
2018-11-25T18:25:36.295Z,15.93
2018-11-25T18:28:40.326Z,17.27
2018-11-25T18:31:44.098Z,17.07
2018-11-25T18:34:47.774Z,16.77
2018-11-25T18:37:51.397Z,15.10
2018-11-25T18:40:54.889Z,17.70
2018-11-25T18:43:58.583Z,16.27
2018-11-25T18:47:02.316Z,17.43
2018-11-25T18:50:07.581Z,17.03
2018-11-25T18:53:11.892Z,16.70
2018-11-25T18:56:15.592Z,16.20
2018-11-25T18:59:19.209Z,16.33
2018-11-25T19:02:27.906Z,17.63
2018-11-25T19:05:31.571Z,17.20
2018-11-25T19:08:35.080Z,17.40
2018-11-25T19:11:38.577Z,17.53
2018-11-25T19:14:42.055Z,17.00
2018-11-25T19:17:45.786Z,18.90
2018-11-25T19:20:49.448Z,16.20
2018-11-25T19:23:55.147Z,17.83
2018-11-25T19:26:58.653Z,17.93
2018-11-25T19:30:03.719Z,18.10
2018-11-25T19:33:07.304Z,21.33
2018-11-25T19:36:10.953Z,20.27
2018-11-25T19:39:14.459Z,18.30
2018-11-25T19:42:17.971Z,18.10
2018-11-25T19:45:24.571Z,20.27
2018-11-25T19:48:28.178Z,19.83
2018-11-25T19:51:31.689Z,20.47
2018-11-25T19:54:36.374Z,19.60
2018-11-25T19:57:40.309Z,20.43
2018-11-25T20:00:43.883Z,22.43
2018-11-25T20:03:47.422Z,21.00
2018-11-25T20:06:50.839Z,19.60
2018-11-25T20:09:54.313Z,20.03
2018-11-25T20:12:58.773Z,19.60
2018-11-25T20:17:10.247Z,21.73
2018-11-25T20:20:15.639Z,21.00
2018-11-25T20:23:19.196Z,20.80
2018-11-25T20:26:22.925Z,20.60
2018-11-25T20:29:26.304Z,19.30
2018-11-25T20:32:35.006Z,19.37
2018-11-25T20:35:38.492Z,20.57
2018-11-25T20:38:48.415Z,21.50
2018-11-25T20:41:51.858Z,22.93
2018-11-25T20:44:55.585Z,22.17
2018-11-25T20:47:59.872Z,24.10
2018-11-25T20:51:03.417Z,24.13
2018-11-25T20:54:06.892Z,25.13
2018-11-25T20:57:10.585Z,22.33
2018-11-25T21:00:18.041Z,23.20
2018-11-25T21:03:21.599Z,23.40
2018-11-25T21:06:25.123Z,23.73
2018-11-25T21:09:28.529Z,24.03
2018-11-25T21:12:31.935Z,25.17
2018-11-25T21:15:35.402Z,25.67
2018-11-25T21:18:38.952Z,23.03
2018-11-25T21:21:42.472Z,24.93
2018-11-25T21:24:46.038Z,25.97
2018-11-25T21:27:49.659Z,24.33
2018-11-25T21:30:53.257Z,25.77
2018-11-25T21:33:56.772Z,26.60
2018-11-25T21:37:00.274Z,26.97
2018-11-25T21:40:04.804Z,23.30
2018-11-25T21:43:08.368Z,23.90
2018-11-25T21:46:12.059Z,24.70
2018-11-25T21:49:15.710Z,25.97
2018-11-25T21:52:19.228Z,23.87
2018-11-25T21:55:23.186Z,24.70
2018-11-25T21:58:28.783Z,24.50
2018-11-25T22:01:30.490Z,24.43
2018-11-25T22:04:34.196Z,25.50
2018-11-25T22:07:37.798Z,28.30
2018-11-25T22:10:41.520Z,24.63
2018-11-25T22:13:45.206Z,27.13
2018-11-25T22:16:48.797Z,26.13
2018-11-25T22:19:52.529Z,26.90
2018-11-25T22:22:56.431Z,24.97
2018-11-25T22:26:00.045Z,24.63
2018-11-25T22:29:03.578Z,23.73
2018-11-25T22:32:07.119Z,24.30
2018-11-25T22:35:12.998Z,23.80
2018-11-25T22:38:16.406Z,23.67
2018-11-25T22:41:19.952Z,23.30
2018-11-25T22:44:23.634Z,25.53
2018-11-25T22:47:27.191Z,22.30
2018-11-25T22:50:30.828Z,25.07
2018-11-25T22:53:34.294Z,25.03
2018-11-25T22:56:38.914Z,24.47
2018-11-25T22:59:42.582Z,23.40
2018-11-25T23:02:46.332Z,22.83
2018-11-25T23:06:01.042Z,23.63
2018-11-25T23:09:07.521Z,23.80
2018-11-25T23:12:11.209Z,21.73
2018-11-25T23:15:14.774Z,22.00
2018-11-25T23:18:18.376Z,22.57
2018-11-25T23:21:22.041Z,23.47
2018-11-25T23:24:25.581Z,21.33
2018-11-25T23:27:33.084Z,21.47
2018-11-25T23:30:37.687Z,21.73
2018-11-25T23:33:41.227Z,20.37
2018-11-25T23:36:44.734Z,20.27
2018-11-25T23:39:49.301Z,19.57
2018-11-25T23:42:52.758Z,18.40
2018-11-25T23:45:56.416Z,17.23
2018-11-25T23:49:00.053Z,16.23
2018-11-25T23:52:03.742Z,16.60
2018-11-25T23:55:10.725Z,17.33
2018-11-25T23:58:14.336Z,17.70
